Time;durP1;ratioP1;P1;durP2;ratioP2;P2;SDS_P1;SDS_P2;PMS_P1;PMS_P2;Temp;Humidity;BMP_temperature;BMP_pressure;BME280_temperature;BME280_humidity;BME280_pressure;Samples;Min_cycle;Max_cycle;Signal;HPM_P1;HPM_P2
2022/09/12 00:01:19;;;;;;;5.65;4.45;;;12.80;99.90;;;;;;5002433;28;20027;-92
2022/09/12 00:03:45;;;;;;;7.22;4.72;;;12.80;99.90;;;;;;5005864;28;20018;-92
2022/09/12 00:06:23;;;;;;;6.60;4.95;;;12.80;99.90;;;;;;5006435;28;20045;-91
2022/09/12 00:08:50;;;;;;;6.05;4.55;;;12.80;99.90;;;;;;5004588;28;20088;-92
2022/09/12 00:11:16;;;;;;;5.72;4.13;;;12.70;99.90;;;;;;5001592;28;20411;-91
2022/09/12 00:13:42;;;;;;;5.65;4.53;;;12.80;99.90;;;;;;5009817;28;20025;-91
2022/09/12 00:16:15;;;;;;;8.80;4.22;;;12.70;99.90;;;;;;5004934;28;20076;-92
2022/09/12 00:18:40;;;;;;;5.13;3.72;;;12.80;99.90;;;;;;5006312;28;20041;-89
2022/09/12 00:21:06;;;;;;;4.97;4.47;;;12.80;99.90;;;;;;5003598;28;20030;-91
2022/09/12 00:23:32;;;;;;;7.53;5.00;;;12.80;99.90;;;;;;5008605;28;20053;-91
2022/09/12 00:25:58;;;;;;;5.05;4.18;;;12.80;99.90;;;;;;5006230;28;20077;-91
2022/09/12 00:28:23;;;;;;;5.63;4.35;;;12.80;99.90;;;;;;5009079;28;20034;-89
2022/09/12 00:30:49;;;;;;;5.22;4.00;;;12.80;99.90;;;;;;5005049;28;20104;-90
2022/09/12 00:33:16;;;;;;;5.65;4.30;;;12.80;99.90;;;;;;5008844;28;20048;-92
2022/09/12 00:35:54;;;;;;;7.82;4.93;;;12.80;99.90;;;;;;5005311;28;20018;-87
2022/09/12 00:38:20;;;;;;;5.05;4.15;;;12.80;99.90;;;;;;5006066;28;20030;-92
2022/09/12 00:40:48;;;;;;;4.63;3.78;;;12.80;99.90;;;;;;5008903;28;20037;-91
2022/09/12 00:43:34;;;;;;;5.38;4.70;;;12.80;99.90;;;;;;5010338;28;20080;-92
2022/09/12 00:46:24;;;;;;;4.88;4.10;;;12.80;99.90;;;;;;5010127;28;20048;-91
2022/09/12 00:49:12;;;;;;;5.20;4.50;;;12.80;99.90;;;;;;5001421;28;20042;-91
2022/09/12 00:51:40;;;;;;;11.30;5.72;;;12.80;99.90;;;;;;5009432;28;20026;-92
2022/09/12 00:54:10;;;;;;;7.72;4.65;;;12.70;99.90;;;;;;5008573;28;20026;-90
2022/09/12 00:56:39;;;;;;;5.15;4.40;;;12.70;99.90;;;;;;5007191;28;20050;-88
2022/09/12 00:59:13;;;;;;;5.20;4.35;;;12.70;99.90;;;;;;5009185;28;20026;-92
2022/09/12 01:01:40;;;;;;;7.25;4.45;;;12.70;99.90;;;;;;5009829;28;20036;-92
2022/09/12 01:04:08;;;;;;;5.53;4.57;;;12.70;99.90;;;;;;5010021;28;20033;-90
2022/09/12 01:06:39;;;;;;;22.65;5.40;;;12.70;99.90;;;;;;5004599;28;20034;-91
2022/09/12 01:09:06;;;;;;;6.60;4.40;;;12.70;99.90;;;;;;5010732;28;20509;-91
2022/09/12 01:11:35;;;;;;;7.32;4.72;;;12.70;99.90;;;;;;5007262;28;20030;-92
2022/09/12 01:14:01;;;;;;;5.22;4.28;;;12.70;99.90;;;;;;5011894;28;20061;-93
2022/09/12 01:16:26;;;;;;;7.78;4.78;;;12.70;99.90;;;;;;5010026;28;20050;-91
2022/09/12 01:19:31;;;;;;;5.20;4.25;;;12.70;99.90;;;;;;5011014;28;20394;-88
2022/09/12 01:22:20;;;;;;;5.70;3.75;;;12.70;99.90;;;;;;5009561;28;20042;-88
2022/09/12 01:24:54;;;;;;;5.30;4.07;;;12.70;99.90;;;;;;5008224;28;20034;-91
2022/09/12 01:27:22;;;;;;;10.10;4.03;;;12.60;99.90;;;;;;5008643;28;20117;-91
2022/09/12 01:29:48;;;;;;;4.22;3.38;;;12.60;99.90;;;;;;5009148;28;20036;-89
2022/09/12 01:32:26;;;;;;;4.97;4.47;;;12.60;99.90;;;;;;5011218;28;20021;-92
2022/09/12 01:35:21;;;;;;;5.35;4.18;;;12.60;99.90;;;;;;5009004;28;20022;-89
2022/09/12 01:38:00;;;;;;;4.43;3.53;;;12.60;99.90;;;;;;5007244;28;20479;-91
2022/09/12 01:40:45;;;;;;;4.80;4.15;;;12.50;99.90;;;;;;5008697;28;20037;-92
2022/09/12 01:43:30;;;;;;;8.00;4.80;;;12.50;99.90;;;;;;5010964;28;20042;-92
2022/09/12 01:46:01;;;;;;;7.88;4.63;;;12.40;99.90;;;;;;5003844;28;20495;-91
2022/09/12 01:48:31;;;;;;;8.80;5.03;;;12.40;99.90;;;;;;5006732;28;20030;-91
2022/09/12 01:51:25;;;;;;;11.93;7.05;;;12.30;99.90;;;;;;5005145;28;20025;-90
2022/09/12 01:53:57;;;;;;;7.97;5.57;;;12.30;99.90;;;;;;5009376;28;20037;-90
2022/09/12 01:56:25;;;;;;;9.07;5.95;;;12.20;99.90;;;;;;5007530;28;20065;-92
2022/09/12 01:58:59;;;;;;;9.77;7.18;;;12.20;99.90;;;;;;5004787;28;20029;-88
2022/09/12 02:01:32;;;;;;;8.35;5.75;;;12.20;99.90;;;;;;5001976;28;20037;-92
2022/09/12 02:04:03;;;;;;;8.38;5.88;;;12.20;99.90;;;;;;5008288;28;20395;-91
2022/09/12 02:06:42;;;;;;;7.45;5.53;;;12.20;99.90;;;;;;5008297;28;20100;-91
2022/09/12 02:09:14;;;;;;;6.82;5.40;;;12.20;99.90;;;;;;5008315;28;20455;-90
2022/09/12 02:11:43;;;;;;;8.77;5.75;;;12.20;99.90;;;;;;5009225;28;20108;-92
2022/09/12 02:14:17;;;;;;;7.25;5.80;;;12.20;99.90;;;;;;5010954;28;20038;-91
2022/09/12 02:17:06;;;;;;;6.93;4.70;;;12.20;99.90;;;;;;5007188;28;20065;-89
2022/09/12 02:19:48;;;;;;;5.55;5.03;;;12.20;99.90;;;;;;5001660;28;20052;-91
2022/09/12 02:22:16;;;;;;;5.80;4.72;;;12.20;99.90;;;;;;5004997;28;20056;-91
2022/09/12 02:24:46;;;;;;;4.30;3.85;;;12.20;99.90;;;;;;5006818;28;20037;-91
2022/09/12 02:27:17;;;;;;;6.63;4.88;;;12.20;99.90;;;;;;5008993;28;20033;-91
2022/09/12 02:29:44;;;;;;;4.63;4.13;;;12.20;99.90;;;;;;5006608;28;20026;-91
2022/09/12 02:32:34;;;;;;;5.35;3.80;;;12.20;99.90;;;;;;5006679;28;20030;-92
2022/09/12 02:35:10;;;;;;;3.97;3.58;;;12.20;99.90;;;;;;5002209;28;20026;-88
2022/09/12 02:37:55;;;;;;;5.10;4.07;;;12.20;99.90;;;;;;5004974;28;20113;-91
2022/09/12 02:40:21;;;;;;;5.75;4.22;;;12.10;99.90;;;;;;5006253;28;20037;-90
2022/09/12 02:42:48;;;;;;;7.88;4.88;;;12.10;99.90;;;;;;5003921;28;20117;-91
2022/09/12 02:45:15;;;;;;;4.97;4.20;;;12.10;99.90;;;;;;5009841;28;20034;-92
2022/09/12 02:47:48;;;;;;;4.72;4.05;;;12.10;99.90;;;;;;5008226;28;20038;-92
2022/09/12 02:50:13;;;;;;;5.50;4.30;;;12.10;99.90;;;;;;5008432;28;20054;-92
2022/09/12 02:52:41;;;;;;;4.95;4.45;;;12.10;99.90;;;;;;5007367;28;20507;-92
2022/09/12 02:55:10;;;;;;;5.93;4.40;;;12.00;99.90;;;;;;5008733;28;20038;-91
2022/09/12 02:57:36;;;;;;;5.38;4.53;;;12.00;99.90;;;;;;5000574;28;20025;-90
2022/09/12 03:00:12;;;;;;;7.40;4.93;;;11.90;99.90;;;;;;5007603;28;20030;-88
2022/09/12 03:02:55;;;;;;;9.23;5.68;;;11.90;99.90;;;;;;5005142;28;20025;-91
2022/09/12 03:05:30;;;;;;;9.85;5.65;;;11.90;99.90;;;;;;5008253;28;20096;-91
2022/09/12 03:08:13;;;;;;;6.75;5.07;;;11.80;99.90;;;;;;5004505;28;20368;-90
2022/09/12 03:11:08;;;;;;;7.18;5.35;;;11.80;99.90;;;;;;5009060;28;20112;-92
2022/09/12 03:13:58;;;;;;;8.38;5.13;;;11.80;99.90;;;;;;5004992;28;20029;-91
2022/09/12 03:16:38;;;;;;;9.82;5.88;;;11.70;99.90;;;;;;5006804;28;20057;-91
2022/09/12 03:19:25;;;;;;;6.85;5.22;;;11.70;99.90;;;;;;5007577;28;20049;-91
2022/09/12 03:22:16;;;;;;;7.10;4.65;;;11.70;99.90;;;;;;5002501;28;20038;-91
2022/09/12 03:24:57;;;;;;;6.25;4.38;;;11.70;99.90;;;;;;5003917;28;20033;-92
2022/09/12 03:27:30;;;;;;;6.45;4.57;;;11.80;99.90;;;;;;5007857;28;20046;-90
2022/09/12 03:29:59;;;;;;;7.00;5.57;;;11.70;99.90;;;;;;5007089;28;20499;-92
2022/09/12 03:32:44;;;;;;;5.78;4.32;;;11.70;99.90;;;;;;5004514;28;20093;-90
2022/09/12 03:35:11;;;;;;;5.43;3.75;;;11.70;99.90;;;;;;5006422;28;20072;-91
2022/09/12 03:37:37;;;;;;;5.68;4.10;;;11.80;99.90;;;;;;5006302;28;20436;-89
2022/09/12 03:40:07;;;;;;;7.35;4.60;;;11.80;99.90;;;;;;5005397;28;20032;-91
2022/09/12 03:42:33;;;;;;;5.70;4.72;;;11.80;99.90;;;;;;5006537;28;20442;-91
2022/09/12 03:44:58;;;;;;;6.95;5.35;;;11.70;99.90;;;;;;5008244;28;20025;-91
2022/09/12 03:47:24;;;;;;;7.18;4.93;;;11.70;99.90;;;;;;5004812;28;20037;-90
2022/09/12 03:49:51;;;;;;;6.88;5.03;;;11.70;99.90;;;;;;5009138;28;20018;-90
2022/09/12 03:52:17;;;;;;;6.30;5.20;;;11.70;99.90;;;;;;5005222;28;20038;-92
2022/09/12 03:54:45;;;;;;;6.45;4.18;;;11.70;99.90;;;;;;5004707;28;20499;-91
2022/09/12 03:57:14;;;;;;;6.05;4.55;;;11.70;99.90;;;;;;5008779;28;20116;-91
2022/09/12 03:59:40;;;;;;;7.82;5.30;;;11.70;99.90;;;;;;5006206;28;20093;-92
2022/09/12 04:02:05;;;;;;;14.70;5.95;;;11.70;99.90;;;;;;5004651;28;20026;-90
2022/09/12 04:04:31;;;;;;;7.88;6.32;;;11.70;99.90;;;;;;5007400;28;20559;-91
2022/09/12 04:06:57;;;;;;;6.80;5.40;;;11.60;99.90;;;;;;5000385;28;20116;-91
2022/09/12 04:09:23;;;;;;;5.38;4.55;;;11.60;99.90;;;;;;5005811;28;20022;-92
2022/09/12 04:11:48;;;;;;;6.05;4.53;;;11.60;99.90;;;;;;5003658;28;20419;-92
2022/09/12 04:14:14;;;;;;;7.25;4.55;;;11.60;99.90;;;;;;5009542;28;20092;-92
2022/09/12 04:16:39;;;;;;;5.85;4.65;;;11.60;99.90;;;;;;5001968;28;20045;-91
2022/09/12 04:19:05;;;;;;;8.68;4.50;;;11.60;99.90;;;;;;5009189;28;20030;-90
2022/09/12 04:21:30;;;;;;;6.13;4.40;;;11.60;99.90;;;;;;5004279;28;20400;-89
2022/09/12 04:23:56;;;;;;;6.00;4.80;;;11.60;99.90;;;;;;5008885;28;20026;-92
2022/09/12 04:26:21;;;;;;;8.80;4.20;;;11.60;99.90;;;;;;5007110;28;20065;-90
2022/09/12 04:28:52;;;;;;;5.68;4.57;;;11.60;99.90;;;;;;5012196;28;20121;-91
2022/09/12 04:31:19;;;;;;;6.32;5.10;;;11.60;99.90;;;;;;5006624;28;20117;-89
2022/09/12 04:33:45;;;;;;;6.35;5.07;;;11.60;99.90;;;;;;5010813;28;20034;-91
2022/09/12 04:36:16;;;;;;;7.90;5.63;;;11.60;99.90;;;;;;5007894;28;20044;-92
2022/09/12 04:38:43;;;;;;;6.82;4.75;;;11.60;99.90;;;;;;5004112;28;20042;-90
2022/09/12 04:41:14;;;;;;;8.10;5.22;;;11.50;99.90;;;;;;5003148;28;20172;-90
2022/09/12 04:43:40;;;;;;;7.45;4.68;;;11.50;99.90;;;;;;5009921;28;20541;-90
2022/09/12 04:46:10;;;;;;;5.47;4.22;;;11.50;99.90;;;;;;5011901;28;20049;-90
2022/09/12 04:48:37;;;;;;;6.55;5.03;;;11.50;99.90;;;;;;5008311;28;20041;-91
2022/09/12 04:51:16;;;;;;;7.55;5.32;;;11.50;99.90;;;;;;5004969;28;20413;-92
2022/09/12 04:53:42;;;;;;;7.43;5.10;;;11.40;99.90;;;;;;5009796;28;20034;-89
2022/09/12 04:56:11;;;;;;;7.50;5.10;;;11.40;99.90;;;;;;5003685;28;20502;-87
2022/09/12 04:58:37;;;;;;;6.93;5.55;;;11.40;99.90;;;;;;5003767;28;20391;-91
2022/09/12 05:01:04;;;;;;;8.95;6.10;;;11.40;99.90;;;;;;5006626;28;20285;-92
2022/09/12 05:03:30;;;;;;;7.80;5.35;;;11.40;99.90;;;;;;5002732;28;20033;-92
2022/09/12 05:05:55;;;;;;;11.75;4.90;;;11.40;99.90;;;;;;5011465;28;20042;-91
2022/09/12 05:08:21;;;;;;;6.00;4.93;;;11.40;99.90;;;;;;5010842;28;20038;-92
2022/09/12 05:10:47;;;;;;;6.03;4.93;;;11.40;99.90;;;;;;5005295;28;20377;-92
2022/09/12 05:13:12;;;;;;;7.63;5.93;;;11.40;99.90;;;;;;5005045;28;20029;-91
2022/09/12 05:15:38;;;;;;;7.45;4.80;;;11.40;99.90;;;;;;5003973;28;20034;-89
2022/09/12 05:18:05;;;;;;;8.23;5.97;;;11.40;99.90;;;;;;5008765;28;20032;-92
2022/09/12 05:20:32;;;;;;;6.35;4.78;;;11.40;99.90;;;;;;5008849;28;20383;-92
2022/09/12 05:22:58;;;;;;;11.75;7.15;;;11.40;99.90;;;;;;5002937;28;20495;-93
2022/09/12 05:25:24;;;;;;;10.05;6.38;;;11.40;99.90;;;;;;5011176;28;20064;-91
2022/09/12 05:27:53;;;;;;;14.80;8.23;;;11.40;99.90;;;;;;5009456;28;20037;-92
2022/09/12 05:30:18;;;;;;;10.50;6.00;;;11.40;99.90;;;;;;5010464;28;20506;-91
2022/09/12 05:32:44;;;;;;;8.65;5.63;;;11.40;99.90;;;;;;5006229;28;20132;-91
2022/09/12 05:35:10;;;;;;;12.25;7.65;;;11.50;99.90;;;;;;5006660;28;20041;-92
2022/09/12 05:37:36;;;;;;;16.88;8.05;;;11.40;99.90;;;;;;5000860;28;20487;-90
2022/09/12 05:40:06;;;;;;;9.65;6.22;;;11.50;99.90;;;;;;5002738;28;20034;-92
2022/09/12 05:42:32;;;;;;;11.00;7.55;;;11.60;99.90;;;;;;5001981;28;20033;-91
2022/09/12 05:44:57;;;;;;;15.23;7.07;;;11.70;99.90;;;;;;5003580;28;20032;-92
2022/09/12 05:47:23;;;;;;;8.73;6.10;;;11.80;99.90;;;;;;4997025;28;20037;-92
2022/09/12 05:49:51;;;;;;;7.57;5.57;;;11.80;99.90;;;;;;5003093;28;20041;-91
2022/09/12 05:52:16;;;;;;;8.40;5.88;;;11.90;99.90;;;;;;5001470;28;20102;-92
2022/09/12 05:54:42;;;;;;;8.98;6.13;;;11.90;99.90;;;;;;5002896;28;20126;-93
2022/09/12 05:57:07;;;;;;;7.13;5.63;;;12.00;99.90;;;;;;5007477;28;20092;-91
2022/09/12 05:59:33;;;;;;;10.48;6.68;;;12.00;99.90;;;;;;5008900;28;20037;-90
2022/09/12 06:01:59;;;;;;;7.15;5.95;;;12.10;99.90;;;;;;5003163;28;20113;-91
2022/09/12 06:04:25;;;;;;;9.10;6.20;;;12.20;99.90;;;;;;5010301;28;20443;-91
2022/09/12 06:06:51;;;;;;;9.40;7.25;;;12.20;99.90;;;;;;5011744;28;20030;-91
2022/09/12 06:09:16;;;;;;;10.18;6.95;;;12.20;99.90;;;;;;5010660;28;20103;-92
2022/09/12 06:11:43;;;;;;;8.63;6.70;;;12.20;99.90;;;;;;5006163;28;20032;-92
2022/09/12 06:14:11;;;;;;;6.97;5.70;;;12.30;99.90;;;;;;5007132;28;20114;-92
2022/09/12 06:16:37;;;;;;;10.07;6.95;;;12.30;99.90;;;;;;5006315;28;20112;-90
2022/09/12 06:19:18;;;;;;;13.23;7.30;;;12.40;99.90;;;;;;5011553;28;20372;-91
2022/09/12 06:21:45;;;;;;;9.85;6.15;;;12.40;99.90;;;;;;5009817;28;20071;-92
2022/09/12 06:24:11;;;;;;;9.63;6.15;;;12.50;99.90;;;;;;5008800;28;20057;-91
2022/09/12 06:26:36;;;;;;;10.05;5.88;;;12.50;99.90;;;;;;5007463;28;20057;-91
2022/09/12 06:29:03;;;;;;;6.07;4.90;;;12.60;99.90;;;;;;5003716;28;20429;-90
2022/09/12 06:31:34;;;;;;;7.85;4.95;;;12.70;99.90;;;;;;4998246;28;20029;-91
2022/09/12 06:34:02;;;;;;;8.05;5.80;;;12.70;99.90;;;;;;5005141;28;20021;-90
2022/09/12 06:36:31;;;;;;;7.85;5.43;;;12.80;99.90;;;;;;5005541;28;20053;-88
2022/09/12 06:39:03;;;;;;;13.88;7.20;;;12.90;99.90;;;;;;5008775;28;20040;-92
2022/09/12 06:41:30;;;;;;;8.38;5.65;;;13.00;99.90;;;;;;5008418;28;20023;-92
2022/09/12 06:43:57;;;;;;;7.60;5.97;;;13.10;99.90;;;;;;5002822;28;20030;-91
2022/09/12 06:46:23;;;;;;;9.10;4.90;;;13.20;99.90;;;;;;5001875;28;20026;-91
2022/09/12 06:48:49;;;;;;;7.22;5.70;;;13.30;99.90;;;;;;5001243;28;20083;-91
2022/09/12 06:51:16;;;;;;;6.10;5.20;;;13.40;99.90;;;;;;5002102;28;20037;-92
2022/09/12 06:53:43;;;;;;;4.80;4.38;;;13.40;99.90;;;;;;5000750;28;20398;-92
2022/09/12 06:56:11;;;;;;;5.35;4.45;;;13.50;99.90;;;;;;5001650;28;20034;-91
2022/09/12 06:58:37;;;;;;;5.55;5.05;;;13.50;99.90;;;;;;5001012;28;20364;-91
2022/09/12 07:01:05;;;;;;;7.25;5.50;;;13.60;99.90;;;;;;5001864;28;20033;-91
2022/09/12 07:03:32;;;;;;;6.97;5.80;;;13.60;99.90;;;;;;4996350;28;20041;-91
2022/09/12 07:06:03;;;;;;;8.07;5.50;;;13.70;99.90;;;;;;5002192;28;20041;-91
2022/09/12 07:08:30;;;;;;;6.60;5.13;;;13.80;99.90;;;;;;5001394;28;20101;-91
2022/09/12 07:10:57;;;;;;;6.55;5.13;;;13.90;99.90;;;;;;4993365;28;20093;-90
2022/09/12 07:13:24;;;;;;;4.95;4.45;;;13.90;99.90;;;;;;5000642;28;20057;-91
2022/09/12 07:15:50;;;;;;;5.90;5.07;;;14.00;99.90;;;;;;5009832;28;20037;-92
2022/09/12 07:18:16;;;;;;;9.93;5.53;;;14.10;99.90;;;;;;5010389;28;20034;-90
2022/09/12 07:20:42;;;;;;;7.18;5.90;;;14.20;99.90;;;;;;5001703;28;20026;-90
2022/09/12 07:23:07;;;;;;;8.77;6.40;;;14.30;99.90;;;;;;4999932;28;20133;-90
2022/09/12 07:25:33;;;;;;;8.60;6.95;;;14.40;99.90;;;;;;5001494;28;20093;-91
2022/09/12 07:27:59;;;;;;;7.68;6.30;;;14.50;99.90;;;;;;5000584;28;20072;-90
2022/09/12 07:30:25;;;;;;;8.20;6.43;;;14.60;99.90;;;;;;5001219;28;20089;-90
2022/09/12 07:32:52;;;;;;;12.15;6.55;;;14.70;99.90;;;;;;4993732;28;20486;-91
2022/09/12 07:35:18;;;;;;;6.07;5.47;;;14.80;99.90;;;;;;5001299;28;20104;-90
2022/09/12 07:37:43;;;;;;;10.30;6.93;;;14.90;99.90;;;;;;5001325;28;20487;-91
2022/09/12 07:40:09;;;;;;;12.75;7.63;;;14.90;99.90;;;;;;5001634;28;20116;-90
2022/09/12 07:42:35;;;;;;;9.45;7.32;;;15.00;99.90;;;;;;5003781;28;20555;-90
2022/09/12 07:45:00;;;;;;;15.20;8.23;;;15.10;99.90;;;;;;5007199;28;20104;-90
2022/09/12 07:47:26;;;;;;;11.27;6.97;;;15.10;99.90;;;;;;5004065;28;20033;-90
2022/09/12 07:49:52;;;;;;;8.63;7.20;;;15.20;99.90;;;;;;5007429;28;20037;-90
2022/09/12 07:52:17;;;;;;;12.63;9.50;;;15.30;99.90;;;;;;5008804;28;20037;-90
2022/09/12 07:54:43;;;;;;;23.98;8.32;;;15.40;99.90;;;;;;5014615;28;20026;-89
2022/09/12 07:57:09;;;;;;;12.23;7.18;;;15.40;99.90;;;;;;5012170;28;20502;-91
2022/09/12 07:59:34;;;;;;;13.50;8.38;;;15.50;99.90;;;;;;5015065;28;20387;-89
2022/09/12 08:02:00;;;;;;;13.18;7.35;;;15.50;99.90;;;;;;5008590;28;20395;-90
2022/09/12 08:04:25;;;;;;;19.60;7.65;;;15.60;99.90;;;;;;5011253;28;20030;-90
2022/09/12 08:06:52;;;;;;;24.63;8.55;;;15.60;99.90;;;;;;5006869;28;20038;-89
2022/09/12 08:09:17;;;;;;;16.15;7.32;;;15.60;99.90;;;;;;5011789;28;20069;-90
2022/09/12 08:11:43;;;;;;;14.55;7.93;;;15.70;99.90;;;;;;5011367;28;20069;-90
2022/09/12 08:14:09;;;;;;;16.55;7.68;;;15.70;99.90;;;;;;5006966;28;20085;-91
2022/09/12 08:16:34;;;;;;;16.33;6.68;;;15.80;99.90;;;;;;5008107;28;20390;-91
2022/09/12 08:19:01;;;;;;;13.23;10.35;;;15.80;99.90;;;;;;5009655;28;20036;-90
2022/09/12 08:21:30;;;;;;;16.13;11.35;;;15.90;99.90;;;;;;5012390;28;20018;-89
2022/09/12 08:24:02;;;;;;;15.13;8.75;;;15.90;99.90;;;;;;5015395;28;20049;-90
2022/09/12 08:26:29;;;;;;;13.48;8.40;;;16.00;99.90;;;;;;5014435;28;20040;-91
2022/09/12 08:28:54;;;;;;;10.13;8.13;;;16.10;99.90;;;;;;5009776;28;20038;-89
2022/09/12 08:31:22;;;;;;;13.63;8.35;;;16.10;99.90;;;;;;5013729;28;20049;-90
2022/09/12 08:33:48;;;;;;;10.60;8.63;;;16.20;99.90;;;;;;5009441;28;20033;-90
2022/09/12 08:36:23;;;;;;;14.13;7.55;;;16.20;99.90;;;;;;5013770;28;20034;-92
2022/09/12 08:38:50;;;;;;;7.00;6.23;;;16.30;99.90;;;;;;5015236;28;20034;-91
2022/09/12 08:41:30;;;;;;;7.78;5.97;;;16.40;99.90;;;;;;5016022;28;20304;-90
2022/09/12 08:44:23;;;;;;;13.13;6.22;;;16.40;99.90;;;;;;5014408;28;20022;-90
2022/09/12 08:47:23;;;;;;;6.82;5.25;;;16.50;99.90;;;;;;5012615;28;20088;-90
2022/09/12 08:49:55;;;;;;;7.93;5.60;;;16.50;99.90;;;;;;5016045;28;20038;-89
2022/09/12 08:52:35;;;;;;;7.05;5.22;;;16.60;99.90;;;;;;5004484;28;20452;-90
2022/09/12 08:55:04;;;;;;;5.72;3.83;;;16.60;99.90;;;;;;5016455;28;20041;-91
2022/09/12 08:57:32;;;;;;;5.40;3.55;;;16.70;99.90;;;;;;5009895;28;20030;-92
2022/09/12 08:59:57;;;;;;;6.95;4.28;;;16.70;99.90;;;;;;5011226;28;20061;-91
2022/09/12 09:02:37;;;;;;;11.05;9.80;;;16.80;99.90;;;;;;5003480;28;20510;-92
2022/09/12 09:05:19;;;;;;;7.35;5.18;;;16.80;99.90;;;;;;5009233;28;20495;-90
2022/09/12 09:08:07;;;;;;;6.88;3.83;;;16.90;99.90;;;;;;5002711;28;20459;-90
2022/09/12 09:11:18;;;;;;;5.15;3.95;;;16.90;99.90;;;;;;5005660;28;20034;-91
2022/09/12 09:16:56;;;;;;;4.72;4.30;;;17.00;99.90;;;;;;4987736;28;20034;-92
2022/09/12 09:19:27;;;;;;;10.38;6.78;;;17.00;99.90;;;;;;4992267;28;20482;-89
2022/09/12 09:21:57;;;;;;;7.35;6.15;;;17.00;99.90;;;;;;5005834;28;20034;-89
2022/09/12 09:24:36;;;;;;;4.95;4.50;;;17.10;99.90;;;;;;5002955;28;20052;-92
2022/09/12 09:27:25;;;;;;;7.93;5.82;;;17.20;99.90;;;;;;5003397;28;20030;-91
2022/09/12 09:29:54;;;;;;;8.02;5.22;;;17.30;99.90;;;;;;4997769;28;20084;-91
2022/09/12 09:32:33;;;;;;;7.05;5.88;;;17.30;99.90;;;;;;5012408;28;20349;-90
2022/09/12 09:35:00;;;;;;;5.43;4.63;;;17.40;99.90;;;;;;5004099;28;20026;-91
2022/09/12 09:37:37;;;;;;;3.65;3.25;;;17.50;99.90;;;;;;5002616;28;20574;-92
2022/09/12 09:40:16;;;;;;;4.53;3.40;;;17.50;99.90;;;;;;4998952;28;20061;-91
2022/09/12 09:42:58;;;;;;;3.55;3.10;;;17.50;99.90;;;;;;5006703;28;20497;-90
2022/09/12 09:45:27;;;;;;;6.38;4.43;;;17.50;99.90;;;;;;5002704;28;20041;-89
2022/09/12 09:48:02;;;;;;;5.85;3.85;;;17.60;99.90;;;;;;5002854;28;20097;-90
2022/09/12 09:50:28;;;;;;;4.90;3.10;;;17.60;99.90;;;;;;5007610;28;20112;-90
2022/09/12 09:52:57;;;;;;;4.75;3.00;;;17.70;99.90;;;;;;5007971;28;20129;-90
2022/09/12 09:55:29;;;;;;;5.03;2.83;;;17.80;99.90;;;;;;5003597;28;20034;-91
2022/09/12 09:57:55;;;;;;;5.75;2.65;;;17.90;99.90;;;;;;5007719;28;20423;-92
2022/09/12 10:00:26;;;;;;;3.35;2.92;;;18.00;99.90;;;;;;5002380;28;20031;-90
2022/09/12 10:03:13;;;;;;;5.18;3.33;;;18.00;99.90;;;;;;5001821;28;20782;-89
2022/09/12 10:05:50;;;;;;;4.28;3.40;;;18.00;99.90;;;;;;5002408;28;20041;-90
2022/09/12 10:08:25;;;;;;;3.78;2.58;;;18.10;99.90;;;;;;5002187;28;20038;-90
2022/09/12 10:10:55;;;;;;;5.85;2.42;;;18.10;99.90;;;;;;5001631;28;20113;-89
2022/09/12 10:13:40;;;;;;;2.92;2.58;;;18.20;99.90;;;;;;4999055;28;20033;-89
2022/09/12 10:16:18;;;;;;;4.22;2.92;;;18.20;99.90;;;;;;5002522;28;20121;-89
2022/09/12 10:18:44;;;;;;;4.20;2.00;;;18.30;99.90;;;;;;4999223;28;20049;-90
2022/09/12 10:21:16;;;;;;;3.47;2.10;;;18.30;99.90;;;;;;5002303;28;20042;-90
2022/09/12 10:23:43;;;;;;;1.88;1.70;;;18.40;99.90;;;;;;5011279;28;20057;-90
2022/09/12 10:26:11;;;;;;;3.50;2.30;;;18.40;99.90;;;;;;5004537;28;20038;-90
2022/09/12 10:28:40;;;;;;;3.08;1.80;;;18.50;99.90;;;;;;5000827;28;20045;-90
2022/09/12 10:31:08;;;;;;;2.33;2.13;;;18.50;99.90;;;;;;5008152;28;20041;-89
2022/09/12 10:33:42;;;;;;;3.22;2.67;;;18.60;99.90;;;;;;5003917;28;20053;-89
2022/09/12 10:36:07;;;;;;;2.92;1.80;;;18.60;99.90;;;;;;4999638;28;20037;-90
2022/09/12 10:38:33;;;;;;;2.03;1.83;;;18.70;99.90;;;;;;5006794;28;20037;-90
2022/09/12 10:41:09;;;;;;;3.40;1.90;;;18.70;99.90;;;;;;5008705;28;20180;-91
2022/09/12 10:43:37;;;;;;;2.20;2.00;;;18.70;99.90;;;;;;5003155;28;20041;-89
2022/09/12 10:46:18;;;;;;;3.28;2.08;;;18.80;99.90;;;;;;5007991;28;20033;-91
2022/09/12 10:49:10;;;;;;;2.78;2.00;;;18.80;99.90;;;;;;5006278;28;20489;-91
2022/09/12 10:51:36;;;;;;;2.75;1.90;;;18.90;99.90;;;;;;5004118;28;20454;-91
2022/09/12 10:54:05;;;;;;;1.88;1.50;;;18.90;99.90;;;;;;5002655;28;20037;-91
2022/09/12 10:56:38;;;;;;;2.60;1.70;;;19.00;99.90;;;;;;5004363;28;20376;-89
2022/09/12 10:59:43;;;;;;;3.08;1.92;;;19.10;99.90;;;;;;5000534;28;20053;-88
2022/09/12 11:02:13;;;;;;;2.85;1.88;;;19.20;99.90;;;;;;5008087;28;20050;-90
2022/09/12 11:04:59;;;;;;;3.60;1.92;;;19.10;99.90;;;;;;4996704;28;20027;-91
2022/09/12 11:07:24;;;;;;;1.75;1.25;;;19.10;99.90;;;;;;5020839;28;20040;-90
2022/09/12 11:10:15;;;;;;;2.13;1.45;;;19.00;99.90;;;;;;5008469;28;20391;-89
2022/09/12 11:13:00;;;;;;;2.03;1.60;;;18.90;99.90;;;;;;5005854;28;20032;-90
2022/09/12 11:15:35;;;;;;;3.03;1.60;;;18.80;99.90;;;;;;5003166;28;20034;-90
2022/09/12 11:18:12;;;;;;;3.27;1.50;;;18.80;99.90;;;;;;5005914;28;20112;-89
2022/09/12 11:21:03;;;;;;;2.33;1.08;;;18.80;99.90;;;;;;5006602;28;20029;-90
2022/09/12 11:23:50;;;;;;;1.65;1.55;;;18.80;99.90;;;;;;5005534;28;20050;-90
2022/09/12 11:26:46;;;;;;;3.10;1.52;;;18.90;99.90;;;;;;5007648;28;20141;-92
2022/09/12 11:29:45;;;;;;;1.52;1.42;;;19.00;99.90;;;;;;4996796;28;20048;-91
2022/09/12 11:32:37;;;;;;;3.13;1.75;;;19.10;99.90;;;;;;4984047;28;20521;-89
2022/09/12 11:35:26;;;;;;;3.35;2.28;;;19.10;99.90;;;;;;5001626;28;20068;-90
2022/09/12 11:37:58;;;;;;;9.07;2.20;;;19.10;99.90;;;;;;5002835;28;20018;-90
2022/09/12 11:40:54;;;;;;;1.77;1.67;;;19.20;99.90;;;;;;5007816;28;20120;-88
2022/09/12 11:43:36;;;;;;;3.75;1.98;;;19.20;99.90;;;;;;5000010;28;20096;-89
2022/09/12 20:16:10;;;;;;;;;;;17.00;99.90;;;;;;6119158;22;1445277;-90
2022/09/12 20:18:37;;;;;;;4.10;1.80;;;17.00;99.90;;;;;;6118974;23;19983;-89
2022/09/12 20:21:16;;;;;;;2.33;1.70;;;16.90;99.90;;;;;;6117691;22;20005;-90
2022/09/12 20:23:43;;;;;;;2.97;1.67;;;16.90;99.90;;;;;;6119022;23;20010;-91
2022/09/12 20:26:10;;;;;;;2.15;1.95;;;16.90;99.90;;;;;;6116973;23;19999;-91
2022/09/12 20:28:40;;;;;;;2.67;2.08;;;16.80;99.90;;;;;;6118664;23;20018;-87
2022/09/12 20:31:11;;;;;;;6.47;3.55;;;16.80;99.90;;;;;;6117402;23;20009;-88
2022/09/12 20:33:39;;;;;;;13.40;4.38;;;16.80;99.90;;;;;;6118923;23;20010;-88
2022/09/12 20:36:08;;;;;;;10.73;5.05;;;16.80;99.90;;;;;;6116264;23;20013;-89
2022/09/12 20:38:33;;;;;;;14.27;6.65;;;16.70;99.90;;;;;;6119007;23;20379;-89
2022/09/12 20:41:04;;;;;;;12.30;6.18;;;16.70;99.90;;;;;;6117641;23;20002;-91
2022/09/12 20:43:29;;;;;;;10.73;6.35;;;16.70;99.90;;;;;;6118478;23;20479;-91
2022/09/12 20:45:55;;;;;;;12.80;6.20;;;16.80;99.90;;;;;;6118018;23;20006;-90
2022/09/12 20:48:21;;;;;;;11.68;5.88;;;16.70;99.90;;;;;;6118626;22;20176;-88
2022/09/12 20:50:46;;;;;;;13.27;7.20;;;16.70;99.90;;;;;;6116602;22;20419;-91
2022/09/12 20:53:13;;;;;;;14.65;8.10;;;16.70;99.90;;;;;;6119320;22;20044;-92
2022/09/12 20:55:38;;;;;;;12.95;5.85;;;16.80;99.90;;;;;;6116518;23;20428;-91
2022/09/12 20:58:04;;;;;;;11.05;5.82;;;16.70;99.90;;;;;;6119218;23;20010;-86
2022/09/12 21:00:30;;;;;;;13.85;6.80;;;16.80;99.90;;;;;;6117325;22;20009;-89
2022/09/12 21:02:55;;;;;;;12.60;6.55;;;16.80;99.90;;;;;;6119006;23;20006;-89
2022/09/12 21:05:21;;;;;;;12.27;6.15;;;16.80;99.90;;;;;;6117316;23;20009;-90
2022/09/12 21:07:47;;;;;;;11.70;6.60;;;16.80;99.90;;;;;;6118769;23;20014;-90
2022/09/12 21:10:12;;;;;;;10.93;6.13;;;16.80;99.90;;;;;;6114727;23;20005;-88
2022/09/12 21:12:38;;;;;;;9.95;6.10;;;16.70;99.90;;;;;;6118790;22;20006;-91
2022/09/12 21:15:04;;;;;;;9.90;5.78;;;16.80;99.90;;;;;;6135322;22;20002;-90
2022/09/12 21:17:30;;;;;;;10.90;5.03;;;16.80;99.90;;;;;;6273522;22;20064;-91
2022/09/12 21:19:55;;;;;;;8.50;4.72;;;16.80;99.90;;;;;;6271592;22;20000;-90
2022/09/12 21:22:21;;;;;;;10.30;5.47;;;16.80;99.90;;;;;;6273872;22;20148;-90
2022/09/12 21:24:47;;;;;;;13.50;5.88;;;16.80;99.90;;;;;;6271531;22;20004;-90
2022/09/12 21:27:12;;;;;;;14.60;5.80;;;16.80;99.90;;;;;;6273577;22;20349;-92
2022/09/12 21:29:38;;;;;;;11.32;5.75;;;16.90;99.90;;;;;;6271491;22;20418;-90
2022/09/12 21:32:04;;;;;;;15.05;6.82;;;16.90;99.90;;;;;;6273024;22;20000;-91
2022/09/12 21:34:30;;;;;;;11.13;5.93;;;16.90;99.90;;;;;;6274175;22;20003;-90
2022/09/12 21:36:56;;;;;;;11.13;4.90;;;16.90;99.90;;;;;;6273474;22;19999;-90
2022/09/12 21:39:21;;;;;;;13.18;5.80;;;16.90;99.90;;;;;;6273670;22;19999;-91